Time;durP1;ratioP1;P1;durP2;ratioP2;P2;SDS_P1;SDS_P2;PMS_P1;PMS_P2;Temp;Humidity;BMP_temperature;BMP_pressure;BME280_temperature;BME280_humidity;BME280_pressure;Samples;Min_cycle;Max_cycle;Signal;HPM_P1;HPM_P2
2021/11/02 06:28:49;;;;;;;37.72;22.25;;;;;;;;;;4906566;29;20511;-72
2021/11/02 06:31:39;;;;;;;39.38;23.33;;;;;;;;;;4904750;29;20032;-67
2021/11/02 06:34:12;;;;;;;36.83;21.25;;;;;;;;;;4903366;29;20189;-69
2021/11/02 06:51:06;;;;;;;36.85;21.77;;;;;;;;;;4868289;29;20097;-73
2021/11/02 07:17:58;;;;;;;33.88;20.17;;;;;;;;;;4855513;29;20585;-74
2021/11/02 07:20:31;;;;;;;33.03;20.33;;;;;;;;;;4855551;29;20046;-74
2021/11/02 07:23:12;;;;;;;33.75;20.02;;;;;;;;;;4853519;29;20046;-69
2021/11/02 07:25:50;;;;;;;31.02;18.73;;;;;;;;;;4858120;29;20082;-76
2021/11/02 08:46:29;;;;;;;28.75;16.88;;;;;;;;;;4901062;29;20389;-68
2021/11/02 08:48:57;;;;;;;27.27;17.40;;;;;;;;;;4884571;29;20166;-67
2021/11/02 08:51:24;;;;;;;30.63;17.73;;;;;;;;;;4880489;29;20033;-69
2021/11/02 08:53:50;;;;;;;27.05;17.55;;;;;;;;;;4879873;29;20029;-68
2021/11/02 08:56:19;;;;;;;27.75;17.52;;;;;;;;;;4879788;29;20037;-68
2021/11/02 08:58:47;;;;;;;26.75;17.08;;;;;;;;;;4894118;29;20492;-67
2021/11/02 09:01:14;;;;;;;28.67;16.52;;;;;;;;;;4916241;29;20075;-67
2021/11/02 09:03:45;;;;;;;27.55;17.13;;;;;;;;;;4898833;29;20399;-65
2021/11/02 09:06:15;;;;;;;25.53;16.17;;;;;;;;;;4916055;29;20112;-58
2021/11/02 09:08:45;;;;;;;27.02;16.98;;;;;;;;;;4911107;29;20047;-67
2021/11/02 09:11:17;;;;;;;26.13;16.73;;;;;;;;;;4916360;29;20072;-67
2021/11/02 09:13:47;;;;;;;28.85;17.20;;;;;;;;;;4913512;29;20394;-63
2021/11/02 09:16:14;;;;;;;30.45;17.05;;;;;;;;;;4897725;29;20028;-65
2021/11/02 09:18:43;;;;;;;26.88;16.65;;;;;;;;;;4915433;29;20123;-62
2021/11/02 09:21:09;;;;;;;25.02;15.52;;;;;;;;;;4915981;29;20185;-70
2021/11/02 09:23:36;;;;;;;27.38;16.73;;;;;;;;;;4915371;29;20480;-67
2021/11/02 09:26:02;;;;;;;24.63;16.13;;;;;;;;;;4915740;29;20500;-68
2021/11/02 09:28:29;;;;;;;26.48;16.10;;;;;;;;;;4917277;29;20067;-67
2021/11/02 09:30:55;;;;;;;23.58;16.33;;;;;;;;;;4917032;29;20028;-67
2021/11/02 09:33:21;;;;;;;25.45;16.52;;;;;;;;;;4917013;29;20032;-67
2021/11/02 09:35:57;;;;;;;30.20;14.70;;;;;;;;;;4915673;29;20103;-67
2021/11/02 09:38:29;;;;;;;24.45;16.13;;;;;;;;;;4887114;29;20470;-68
2021/11/02 09:41:14;;;;;;;22.95;15.25;;;;;;;;;;4886889;29;20100;-64
2021/11/02 09:43:58;;;;;;;23.27;14.35;;;;;;;;;;4886298;29;20040;-64
2021/11/02 09:46:30;;;;;;;23.23;15.88;;;;;;;;;;4883496;29;20126;-68
2021/11/02 09:49:21;;;;;;;23.73;15.93;;;;;;;;;;4878917;29;20037;-66
2021/11/02 09:52:11;;;;;;;23.60;15.13;;;;;;;;;;4878827;29;20037;-64
2021/11/02 09:54:44;;;;;;;22.92;15.07;;;;;;;;;;4838484;29;20095;-66
2021/11/02 09:57:12;;;;;;;23.38;15.05;;;;;;;;;;4838984;29;20042;-67
2021/11/02 09:59:58;;;;;;;23.88;15.63;;;;;;;;;;4839357;29;20046;-66
2021/11/02 10:02:38;;;;;;;25.13;15.38;;;;;;;;;;4839310;29;20045;-63
2021/11/02 10:05:23;;;;;;;24.17;15.68;;;;;;;;;;4838644;29;20499;-65
2021/11/02 10:08:09;;;;;;;21.77;14.27;;;;;;;;;;4838511;29;20057;-64
2021/11/02 10:10:44;;;;;;;22.65;15.20;;;;;;;;;;4836636;29;20087;-66
2021/11/02 10:13:14;;;;;;;22.50;14.93;;;;;;;;;;4833812;29;20050;-65
2021/11/02 10:15:49;;;;;;;18.90;13.25;;;;;;;;;;4838988;29;20061;-65
2021/11/02 10:18:34;;;;;;;22.63;15.05;;;;;;;;;;4839141;29;20034;-63
2021/11/02 10:21:00;;;;;;;23.55;15.00;;;;;;;;;;4839311;29;20225;-64
2021/11/02 10:23:45;;;;;;;22.70;14.27;;;;;;;;;;4837691;29;20104;-64
2021/11/02 10:26:23;;;;;;;21.27;14.32;;;;;;;;;;4838069;29;20082;-64
2021/11/02 10:28:52;;;;;;;22.45;14.75;;;;;;;;;;4820403;29;20077;-66
2021/11/02 10:31:56;;;;;;;21.48;15.25;;;;;;;;;;4856499;29;20379;-66
2021/11/02 10:34:40;;;;;;;22.90;13.68;;;;;;;;;;4830619;29;20038;-72
2021/11/02 10:37:09;;;;;;;22.85;14.38;;;;;;;;;;4830231;29;20474;-68
2021/11/02 10:39:48;;;;;;;21.63;14.32;;;;;;;;;;4837534;29;20037;-70
2021/11/02 10:42:16;;;;;;;22.67;14.20;;;;;;;;;;4831384;29;20075;-71
2021/11/02 10:44:44;;;;;;;23.38;15.00;;;;;;;;;;4837800;29;20092;-70
2021/11/02 10:47:17;;;;;;;20.77;14.38;;;;;;;;;;4842048;29;20033;-72
2021/11/02 10:50:05;;;;;;;19.67;13.18;;;;;;;;;;4829203;29;20037;-69
2021/11/02 10:52:32;;;;;;;22.48;14.10;;;;;;;;;;4853119;29;20132;-71
2021/11/02 10:55:21;;;;;;;17.75;13.27;;;;;;;;;;4851244;29;20032;-72
2021/11/02 10:58:05;;;;;;;25.67;15.02;;;;;;;;;;4837241;29;20195;-58
2021/11/02 11:00:33;;;;;;;22.40;15.20;;;;;;;;;;4837363;29;20069;-70
2021/11/02 11:03:03;;;;;;;22.45;15.57;;;;;;;;;;4837002;29;20137;-64
2021/11/02 11:05:30;;;;;;;22.98;15.65;;;;;;;;;;4868012;29;20399;-62
2021/11/02 11:07:58;;;;;;;22.67;15.68;;;;;;;;;;4877008;29;20128;-64
2021/11/02 11:10:24;;;;;;;22.63;15.35;;;;;;;;;;4877253;29;20049;-68
2021/11/02 11:12:54;;;;;;;24.55;17.08;;;;;;;;;;4883334;29;20524;-65
2021/11/02 11:15:20;;;;;;;23.63;15.63;;;;;;;;;;4887239;29;20031;-65
2021/11/02 11:17:50;;;;;;;24.83;16.80;;;;;;;;;;4884975;29;20029;-64
2021/11/02 11:20:16;;;;;;;25.08;16.48;;;;;;;;;;4891864;29;20167;-63
2021/11/02 11:22:43;;;;;;;23.20;16.15;;;;;;;;;;4893668;29;20048;-60
2021/11/02 11:25:11;;;;;;;25.50;16.23;;;;;;;;;;4901347;29;20171;-65
2021/11/02 11:27:51;;;;;;;22.45;16.00;;;;;;;;;;4914823;29;20396;-63
2021/11/02 11:30:18;;;;;;;23.95;16.33;;;;;;;;;;4914824;29;20031;-65
2021/11/02 11:32:44;;;;;;;23.05;15.15;;;;;;;;;;4914428;29;20135;-64
2021/11/02 11:35:11;;;;;;;26.40;16.58;;;;;;;;;;4914886;29;20385;-62
2021/11/02 11:37:41;;;;;;;23.20;16.95;;;;;;;;;;4915078;29;20039;-65
2021/11/02 11:40:09;;;;;;;25.30;15.43;;;;;;;;;;4914345;29;20028;-62
2021/11/02 11:42:36;;;;;;;27.92;17.95;;;;;;;;;;4914474;29;20051;-59
2021/11/02 11:45:08;;;;;;;24.60;16.73;;;;;;;;;;4914846;29;20050;-65
2021/11/02 11:47:34;;;;;;;24.00;17.02;;;;;;;;;;4913773;29;20039;-59
2021/11/02 11:50:32;;;;;;;24.08;16.42;;;;;;;;;;4902490;29;20505;-65
2021/11/02 11:53:04;;;;;;;23.90;15.85;;;;;;;;;;4819699;29;20131;-66
2021/11/02 11:55:32;;;;;;;24.35;16.05;;;;;;;;;;4819184;29;20049;-62
2021/11/02 11:58:06;;;;;;;24.05;16.75;;;;;;;;;;4818981;29;20481;-68
2021/11/02 12:00:32;;;;;;;24.73;16.35;;;;;;;;;;4819219;29;20041;-67
2021/11/02 12:03:07;;;;;;;29.20;17.38;;;;;;;;;;4819329;29;20110;-66
2021/11/02 12:05:41;;;;;;;25.98;16.92;;;;;;;;;;4819569;29;20040;-68
2021/11/02 12:08:10;;;;;;;25.23;17.05;;;;;;;;;;4811963;29;20574;-67
2021/11/02 12:10:37;;;;;;;27.27;18.33;;;;;;;;;;4800855;29;20055;-66
2021/11/02 12:13:07;;;;;;;26.10;17.63;;;;;;;;;;4800939;29;20433;-66
2021/11/02 12:16:13;;;;;;;27.58;17.25;;;;;;;;;;4801281;29;20043;-65
2021/11/02 12:18:41;;;;;;;27.50;18.10;;;;;;;;;;4800832;29;20043;-67
2021/11/02 12:21:12;;;;;;;25.58;17.77;;;;;;;;;;4800875;29;20031;-67
2021/11/02 12:23:39;;;;;;;26.25;17.73;;;;;;;;;;4800742;29;20400;-69
2021/11/02 12:26:06;;;;;;;27.73;18.05;;;;;;;;;;4794006;29;20092;-62
2021/11/02 12:28:35;;;;;;;27.35;18.10;;;;;;;;;;4836260;29;20452;-70
2021/11/02 12:31:03;;;;;;;29.17;17.50;;;;;;;;;;4877015;29;20025;-67
2021/11/02 12:33:30;;;;;;;28.92;17.77;;;;;;;;;;4876629;29;20025;-61
2021/11/02 12:35:57;;;;;;;26.98;17.25;;;;;;;;;;4875632;29;20064;-67
2021/11/02 12:38:32;;;;;;;28.45;18.52;;;;;;;;;;4859501;29;20037;-65
2021/11/02 12:40:59;;;;;;;26.10;17.38;;;;;;;;;;4876306;29;21091;-67
2021/11/02 12:43:26;;;;;;;23.13;16.33;;;;;;;;;;4877181;29;20076;-66
2021/11/02 12:45:53;;;;;;;25.73;17.35;;;;;;;;;;4880107;29;20021;-65
2021/11/02 12:48:20;;;;;;;26.10;17.23;;;;;;;;;;4879551;29;20040;-68
2021/11/02 12:50:48;;;;;;;26.75;17.15;;;;;;;;;;4879858;29;20081;-66
2021/11/02 12:53:15;;;;;;;26.08;17.52;;;;;;;;;;4876958;29;20067;-64
2021/11/02 12:55:43;;;;;;;28.92;18.27;;;;;;;;;;4876555;29;20033;-68
2021/11/02 12:58:12;;;;;;;25.13;17.20;;;;;;;;;;4879603;29;20025;-66
2021/11/02 13:00:46;;;;;;;26.30;17.33;;;;;;;;;;4880157;29;20078;-70
2021/11/02 13:03:19;;;;;;;29.27;18.08;;;;;;;;;;4879339;29;20037;-68
2021/11/02 13:05:55;;;;;;;29.00;18.38;;;;;;;;;;4874952;29;20073;-65
2021/11/02 13:08:28;;;;;;;30.42;18.63;;;;;;;;;;4878626;29;20147;-67
2021/11/02 13:11:02;;;;;;;26.27;17.67;;;;;;;;;;4844229;29;20110;-70
2021/11/02 13:13:29;;;;;;;27.92;18.30;;;;;;;;;;4861345;29;20065;-68
2021/11/02 13:15:57;;;;;;;29.55;18.13;;;;;;;;;;4861039;29;20026;-68
2021/11/02 13:18:32;;;;;;;28.08;18.73;;;;;;;;;;4860741;29;20505;-68
2021/11/02 13:21:28;;;;;;;30.38;20.00;;;;;;;;;;4861132;29;20116;-70
2021/11/02 13:24:04;;;;;;;31.70;19.88;;;;;;;;;;4860677;29;20070;-70
2021/11/02 13:26:30;;;;;;;25.95;17.80;;;;;;;;;;4860875;29;20033;-68
2021/11/02 13:29:15;;;;;;;29.58;18.17;;;;;;;;;;4860804;29;20034;-68
2021/11/02 13:31:42;;;;;;;30.05;18.88;;;;;;;;;;4860387;29;20030;-69
2021/11/02 13:34:09;;;;;;;30.25;19.05;;;;;;;;;;4860908;29;20057;-69
2021/11/02 13:36:36;;;;;;;32.45;19.05;;;;;;;;;;4860546;29;20120;-68
2021/11/02 13:39:05;;;;;;;29.50;19.25;;;;;;;;;;4860676;29;20102;-68
2021/11/02 13:41:36;;;;;;;33.65;19.90;;;;;;;;;;4860681;29;20060;-67
2021/11/02 13:44:05;;;;;;;33.42;20.10;;;;;;;;;;4860477;29;20481;-64
2021/11/02 13:46:46;;;;;;;30.65;19.42;;;;;;;;;;4860475;29;20056;-67
2021/11/02 13:49:13;;;;;;;33.38;19.42;;;;;;;;;;4860478;29;20128;-65
2021/11/02 13:51:39;;;;;;;29.77;20.30;;;;;;;;;;4860462;29;20038;-68
2021/11/02 13:54:06;;;;;;;33.08;19.38;;;;;;;;;;4879294;29;20504;-68
2021/11/02 13:56:34;;;;;;;34.67;19.92;;;;;;;;;;4876103;29;20424;-64
2021/11/02 13:59:01;;;;;;;34.75;20.10;;;;;;;;;;4879843;29;20492;-67
2021/11/02 14:01:32;;;;;;;33.58;21.45;;;;;;;;;;4896111;29;20064;-67
2021/11/02 14:04:05;;;;;;;31.60;20.58;;;;;;;;;;4896198;29;20028;-68
2021/11/02 14:06:34;;;;;;;37.03;22.75;;;;;;;;;;4892402;29;20028;-67
2021/11/02 14:09:00;;;;;;;37.03;22.50;;;;;;;;;;4901997;29;20058;-68
2021/11/02 14:11:31;;;;;;;38.53;22.58;;;;;;;;;;4897073;29;20033;-66
2021/11/02 14:13:57;;;;;;;34.75;22.42;;;;;;;;;;4885983;29;20434;-67
2021/11/02 14:16:29;;;;;;;33.05;21.40;;;;;;;;;;4887785;29;20088;-67
2021/11/02 14:18:55;;;;;;;37.53;21.57;;;;;;;;;;4870786;29;20540;-66
2021/11/02 14:21:40;;;;;;;34.13;22.65;;;;;;;;;;4886931;29;20644;-69
2021/11/02 14:24:06;;;;;;;37.33;22.02;;;;;;;;;;4886994;29;20024;-66
2021/11/02 14:26:35;;;;;;;34.67;21.98;;;;;;;;;;4886164;29;20104;-67
2021/11/02 14:29:02;;;;;;;36.38;21.88;;;;;;;;;;4885832;29;20433;-64
2021/11/02 14:31:37;;;;;;;39.38;22.67;;;;;;;;;;4887060;29;20032;-66
2021/11/02 14:34:04;;;;;;;35.13;23.02;;;;;;;;;;4887480;29;20536;-63
2021/11/02 14:36:38;;;;;;;37.70;23.80;;;;;;;;;;4888094;29;20119;-66
2021/11/02 14:39:05;;;;;;;39.03;24.40;;;;;;;;;;4885286;29;20060;-65
2021/11/02 14:41:33;;;;;;;44.83;28.50;;;;;;;;;;4886302;29;20048;-64
2021/11/02 14:44:14;;;;;;;49.20;29.75;;;;;;;;;;4868110;29;20194;-61
2021/11/02 14:46:42;;;;;;;55.97;33.50;;;;;;;;;;4885125;29;20028;-64
2021/11/02 14:49:27;;;;;;;47.35;30.23;;;;;;;;;;4887575;29;20476;-65
2021/11/02 14:51:59;;;;;;;43.88;27.55;;;;;;;;;;4882503;29;20091;-63
2021/11/02 14:54:29;;;;;;;43.83;27.27;;;;;;;;;;4885017;29;20036;-63
2021/11/02 14:56:57;;;;;;;40.22;26.95;;;;;;;;;;4885115;29;20432;-64
2021/11/02 14:59:23;;;;;;;40.90;26.30;;;;;;;;;;4887341;29;20067;-64
2021/11/02 15:02:04;;;;;;;43.72;27.33;;;;;;;;;;4886350;29;20032;-66
2021/11/02 15:04:30;;;;;;;52.03;30.80;;;;;;;;;;4887383;29;20526;-68
2021/11/02 15:07:00;;;;;;;47.75;28.50;;;;;;;;;;4884530;29;20039;-65
2021/11/02 15:09:31;;;;;;;40.15;25.00;;;;;;;;;;4881133;29;20043;-63
2021/11/02 15:11:57;;;;;;;57.70;32.35;;;;;;;;;;4881691;29;20029;-63
2021/11/02 15:14:30;;;;;;;56.15;33.75;;;;;;;;;;4885610;29;20041;-63
2021/11/02 15:17:07;;;;;;;47.55;29.15;;;;;;;;;;4886226;29;20493;-66
2021/11/02 15:19:34;;;;;;;60.72;33.00;;;;;;;;;;4885835;29;20033;-67
2021/11/02 15:22:01;;;;;;;43.25;27.63;;;;;;;;;;4884502;29;20048;-62
2021/11/02 15:24:32;;;;;;;46.75;28.55;;;;;;;;;;4885962;29;20028;-66
2021/11/02 15:26:58;;;;;;;48.63;29.60;;;;;;;;;;4886189;29;20401;-65
2021/11/02 15:29:26;;;;;;;49.25;29.23;;;;;;;;;;4884275;29;20053;-68
2021/11/02 15:32:04;;;;;;;48.20;28.83;;;;;;;;;;4885460;29;20036;-65
2021/11/02 15:34:37;;;;;;;48.58;29.20;;;;;;;;;;4885501;29;20088;-66
2021/11/02 15:37:07;;;;;;;50.40;30.80;;;;;;;;;;4882982;29;20037;-65
2021/11/02 15:39:33;;;;;;;47.95;30.73;;;;;;;;;;4885753;29;20125;-68
2021/11/02 15:41:59;;;;;;;49.97;31.35;;;;;;;;;;4883962;29;20037;-67
2021/11/02 15:44:28;;;;;;;53.10;31.60;;;;;;;;;;4886043;29;20112;-65
2021/11/02 15:46:54;;;;;;;53.05;31.45;;;;;;;;;;4885906;29;20109;-64
2021/11/02 15:49:23;;;;;;;51.42;31.02;;;;;;;;;;4884269;29;20040;-66
2021/11/02 15:51:53;;;;;;;52.90;31.23;;;;;;;;;;4885272;29;20025;-65
2021/11/02 15:54:20;;;;;;;54.90;34.50;;;;;;;;;;4885895;29;20033;-68
2021/11/02 15:56:46;;;;;;;56.20;34.08;;;;;;;;;;4888210;29;20025;-66
2021/11/02 15:59:12;;;;;;;57.05;33.53;;;;;;;;;;4889260;29;20097;-64
2021/11/02 16:01:50;;;;;;;60.40;36.08;;;;;;;;;;4889692;29;20033;-66
2021/11/02 16:04:19;;;;;;;58.65;33.88;;;;;;;;;;4885683;29;20449;-69
2021/11/02 16:07:11;;;;;;;60.72;35.90;;;;;;;;;;4886658;29;20077;-69
2021/11/02 16:09:43;;;;;;;57.28;34.72;;;;;;;;;;4883480;29;20049;-68
2021/11/02 16:12:31;;;;;;;70.65;38.72;;;;;;;;;;4884709;29;20056;-67
2021/11/02 16:15:02;;;;;;;76.07;43.63;;;;;;;;;;4876510;29;20048;-67
2021/11/02 16:17:29;;;;;;;72.80;41.83;;;;;;;;;;4896796;29;20024;-69
2021/11/02 16:19:56;;;;;;;88.03;50.25;;;;;;;;;;4898967;29;20036;-67
2021/11/02 16:22:23;;;;;;;83.75;49.80;;;;;;;;;;4899034;29;20044;-64
2021/11/02 16:25:03;;;;;;;92.10;52.72;;;;;;;;;;4898747;29;20101;-69
2021/11/02 16:27:29;;;;;;;104.32;61.58;;;;;;;;;;4898961;29;20033;-67
2021/11/02 16:29:55;;;;;;;109.45;62.20;;;;;;;;;;4899124;29;20033;-68
2021/11/02 16:32:37;;;;;;;109.32;61.63;;;;;;;;;;4882109;29;20037;-67
2021/11/02 16:35:03;;;;;;;118.18;63.10;;;;;;;;;;4899236;29;20036;-62
2021/11/02 16:37:34;;;;;;;116.95;63.25;;;;;;;;;;4898056;29;20028;-65
2021/11/02 16:40:29;;;;;;;105.97;59.03;;;;;;;;;;4897919;29;20036;-62
2021/11/02 16:42:57;;;;;;;104.22;58.55;;;;;;;;;;4821723;29;20426;-64
2021/11/02 16:45:24;;;;;;;109.13;59.15;;;;;;;;;;4822316;29;20038;-70
2021/11/02 16:47:57;;;;;;;100.80;56.15;;;;;;;;;;4822034;29;20066;-66
2021/11/02 16:50:27;;;;;;;108.03;58.00;;;;;;;;;;4821833;29;20118;-63
2021/11/02 16:52:54;;;;;;;94.32;54.92;;;;;;;;;;4820662;29;20042;-67
2021/11/02 16:55:20;;;;;;;95.13;54.28;;;;;;;;;;4821191;29;20034;-67
2021/11/02 16:57:47;;;;;;;98.60;56.33;;;;;;;;;;4803734;29;20093;-68
2021/11/02 17:00:15;;;;;;;149.20;86.65;;;;;;;;;;4822058;29;20517;-63
2021/11/02 17:02:42;;;;;;;130.68;76.85;;;;;;;;;;4822222;29;20145;-69
2021/11/02 17:05:21;;;;;;;119.15;68.80;;;;;;;;;;4821489;29;20125;-67
2021/11/02 17:07:47;;;;;;;106.60;61.60;;;;;;;;;;4821276;29;20507;-69
2021/11/02 17:10:27;;;;;;;109.28;63.22;;;;;;;;;;4821445;29;20455;-68
2021/11/02 17:12:53;;;;;;;109.60;62.13;;;;;;;;;;4821359;29;20159;-60
2021/11/02 17:15:21;;;;;;;114.63;65.22;;;;;;;;;;4821634;29;20043;-62
2021/11/02 17:17:47;;;;;;;106.78;60.40;;;;;;;;;;4821777;29;20073;-59
2021/11/02 17:20:15;;;;;;;100.45;57.65;;;;;;;;;;4872269;29;20040;-66
2021/11/02 17:22:41;;;;;;;104.53;58.10;;;;;;;;;;4879307;29;20064;-65
2021/11/02 17:25:08;;;;;;;100.22;56.67;;;;;;;;;;4889662;29;20507;-68
2021/11/02 17:27:34;;;;;;;100.85;56.28;;;;;;;;;;4893187;29;20036;-65
2021/11/02 17:30:01;;;;;;;98.30;55.53;;;;;;;;;;4890119;29;20072;-60
2021/11/02 17:32:32;;;;;;;99.70;56.58;;;;;;;;;;4893950;29;20040;-66
2021/11/02 17:34:59;;;;;;;102.77;57.47;;;;;;;;;;4887581;29;20508;-60
2021/11/02 17:37:27;;;;;;;105.28;55.85;;;;;;;;;;4891888;29;20107;-61
2021/11/02 17:39:53;;;;;;;105.93;56.72;;;;;;;;;;4897967;29;20481;-58
2021/11/02 17:42:20;;;;;;;101.43;56.15;;;;;;;;;;4885132;29;20045;-62
2021/11/02 17:44:46;;;;;;;97.78;51.45;;;;;;;;;;4887310;29;20040;-68
2021/11/02 17:47:13;;;;;;;85.82;50.75;;;;;;;;;;4897996;29;20032;-61
2021/11/02 17:49:40;;;;;;;91.57;51.38;;;;;;;;;;4897740;29;20164;-66
2021/11/02 17:52:06;;;;;;;87.72;49.58;;;;;;;;;;4894238;29;20036;-67
2021/11/02 17:54:32;;;;;;;97.32;51.88;;;;;;;;;;4896947;29;20040;-65
2021/11/02 17:56:58;;;;;;;88.25;51.13;;;;;;;;;;4896937;29;20038;-67
2021/11/02 17:59:25;;;;;;;88.03;48.67;;;;;;;;;;4897005;29;20036;-67
2021/11/02 18:01:52;;;;;;;80.80;46.83;;;;;;;;;;4897345;29;20060;-66
2021/11/02 18:04:19;;;;;;;76.63;44.95;;;;;;;;;;4897292;29;20392;-68
2021/11/02 18:06:45;;;;;;;70.38;40.38;;;;;;;;;;4896962;29;20032;-70
2021/11/02 18:09:13;;;;;;;67.15;39.33;;;;;;;;;;4896839;29;20045;-69
2021/11/02 18:11:40;;;;;;;69.47;38.00;;;;;;;;;;4896555;29;20036;-70
2021/11/02 18:14:07;;;;;;;63.55;37.70;;;;;;;;;;4878941;29;20037;-71
2021/11/02 18:16:33;;;;;;;62.25;35.20;;;;;;;;;;4878397;29;20390;-68
2021/11/02 18:19:02;;;;;;;61.75;35.90;;;;;;;;;;4878562;29;20532;-70
2021/11/02 18:21:29;;;;;;;63.85;37.55;;;;;;;;;;4878302;29;20029;-68
2021/11/02 18:23:55;;;;;;;52.05;32.40;;;;;;;;;;4878088;29;20033;-71
2021/11/02 18:26:23;;;;;;;42.33;25.60;;;;;;;;;;4877170;29;20125;-65
2021/11/02 18:28:50;;;;;;;42.28;25.13;;;;;;;;;;4864694;29;20076;-70
2021/11/02 18:31:17;;;;;;;39.53;25.90;;;;;;;;;;4882052;29;20031;-72
2021/11/02 18:33:43;;;;;;;38.17;24.23;;;;;;;;;;4886078;29;20040;-71
2021/11/02 18:36:10;;;;;;;40.15;24.80;;;;;;;;;;4884910;29;20067;-64
2021/11/02 18:38:40;;;;;;;41.05;25.13;;;;;;;;;;4886831;29;20152;-73
2021/11/02 18:41:06;;;;;;;39.72;25.50;;;;;;;;;;4885005;29;20028;-73
2021/11/02 18:43:33;;;;;;;38.95;25.80;;;;;;;;;;4883790;29;20045;-59
2021/11/02 18:45:59;;;;;;;37.97;24.60;;;;;;;;;;4885891;29;20493;-68
2021/11/02 18:48:26;;;;;;;44.63;26.90;;;;;;;;;;4886442;29;20044;-73
2021/11/02 18:50:52;;;;;;;45.28;27.45;;;;;;;;;;4899496;29;20477;-66
2021/11/02 18:53:19;;;;;;;41.00;26.65;;;;;;;;;;4893360;29;20547;-60
2021/11/02 18:55:45;;;;;;;44.88;28.35;;;;;;;;;;4888681;29;20089;-71
2021/11/02 18:58:12;;;;;;;42.47;26.60;;;;;;;;;;4884803;29;20116;-70
2021/11/02 19:00:38;;;;;;;41.30;26.60;;;;;;;;;;4869681;29;20385;-67
2021/11/02 19:03:06;;;;;;;40.20;25.30;;;;;;;;;;4877191;29;20446;-67
2021/11/02 19:05:32;;;;;;;38.90;24.70;;;;;;;;;;4877037;29;20025;-68
2021/11/02 19:07:58;;;;;;;39.72;24.73;;;;;;;;;;4877538;29;20025;-69
2021/11/02 19:10:24;;;;;;;40.58;26.05;;;;;;;;;;4877585;29;20137;-68
2021/11/02 19:12:50;;;;;;;38.90;24.75;;;;;;;;;;4887491;29;20389;-68
2021/11/02 19:15:16;;;;;;;39.22;24.83;;;;;;;;;;4890974;29;20552;-66
2021/11/02 19:17:42;;;;;;;41.17;24.73;;;;;;;;;;4893081;29;20128;-68
2021/11/02 19:20:09;;;;;;;40.53;25.10;;;;;;;;;;4890166;29;20025;-64
2021/11/02 19:22:35;;;;;;;37.65;24.60;;;;;;;;;;4888060;29;20445;-69
2021/11/02 19:25:01;;;;;;;38.20;25.40;;;;;;;;;;4913240;29;20024;-69
2021/11/02 19:27:29;;;;;;;40.65;25.75;;;;;;;;;;4877483;29;20043;-68
2021/11/02 19:29:55;;;;;;;41.42;26.30;;;;;;;;;;4881574;29;20044;-63
2021/11/02 19:32:21;;;;;;;38.92;25.42;;;;;;;;;;4896179;29;20028;-68
2021/11/02 19:34:47;;;;;;;41.90;26.27;;;;;;;;;;4895417;29;20039;-68
2021/11/02 19:37:13;;;;;;;39.67;25.30;;;;;;;;;;4895752;29;20028;-65
2021/11/02 19:39:40;;;;;;;42.40;25.45;;;;;;;;;;4896081;29;20048;-64
2021/11/02 19:42:06;;;;;;;37.97;25.25;;;;;;;;;;4895117;29;20048;-73
2021/11/02 19:44:34;;;;;;;41.83;25.60;;;;;;;;;;4895781;29;20489;-69
2021/11/02 19:47:04;;;;;;;38.63;24.45;;;;;;;;;;4896123;29;20053;-71
2021/11/02 19:49:30;;;;;;;35.42;24.63;;;;;;;;;;4886879;29;20025;-64
2021/11/02 19:51:57;;;;;;;45.60;29.95;;;;;;;;;;4881532;29;20029;-63
2021/11/02 19:54:23;;;;;;;60.58;39.53;;;;;;;;;;4881168;29;20393;-63
2021/11/02 19:56:50;;;;;;;58.30;37.75;;;;;;;;;;4881050;29;20048;-58
2021/11/02 19:59:18;;;;;;;50.55;32.42;;;;;;;;;;4890617;29;20037;-64
2021/11/02 20:01:45;;;;;;;44.30;28.42;;;;;;;;;;4898303;29;20028;-62
2021/11/02 20:04:11;;;;;;;44.97;28.60;;;;;;;;;;4894741;29;20540;-66
2021/11/02 20:06:39;;;;;;;43.30;28.38;;;;;;;;;;4899596;29;20024;-58
2021/11/02 20:09:07;;;;;;;40.72;26.85;;;;;;;;;;4899556;29;20087;-59
2021/11/02 20:11:35;;;;;;;39.47;25.92;;;;;;;;;;4899417;29;20127;-63
2021/11/02 20:14:01;;;;;;;42.85;26.30;;;;;;;;;;4898622;29;20041;-63
2021/11/02 20:16:29;;;;;;;43.25;26.70;;;;;;;;;;4897915;29;20103;-63
2021/11/02 20:18:58;;;;;;;38.88;26.13;;;;;;;;;;4889445;29;20043;-70
2021/11/02 20:21:24;;;;;;;37.97;25.55;;;;;;;;;;4884586;29;20047;-64
2021/11/02 20:23:51;;;;;;;39.60;25.77;;;;;;;;;;4894765;29;20456;-66
2021/11/02 20:26:22;;;;;;;36.90;24.73;;;;;;;;;;4899600;29;20418;-68
2021/11/02 20:28:49;;;;;;;35.03;23.40;;;;;;;;;;4882400;29;20041;-62
2021/11/02 20:31:15;;;;;;;37.30;24.77;;;;;;;;;;4898561;29;20780;-59
2021/11/02 20:33:41;;;;;;;35.75;24.25;;;;;;;;;;4893324;29;20032;-61
2021/11/02 20:36:08;;;;;;;36.40;23.85;;;;;;;;;;4889265;29;20031;-61
2021/11/02 20:38:36;;;;;;;38.88;24.13;;;;;;;;;;4888687;29;20481;-59
2021/11/02 20:41:06;;;;;;;36.08;22.77;;;;;;;;;;4888896;29;20112;-61
2021/11/02 20:43:35;;;;;;;34.95;23.70;;;;;;;;;;4871950;29;20052;-63
2021/11/02 20:46:03;;;;;;;33.00;21.63;;;;;;;;;;4870882;29;20021;-63
2021/11/02 20:48:35;;;;;;;33.78;22.92;;;;;;;;;;4887361;29;20370;-61
2021/11/02 20:51:01;;;;;;;32.50;21.75;;;;;;;;;;4887523;29;20187;-57
2021/11/02 20:53:28;;;;;;;35.53;22.05;;;;;;;;;;4888990;29;20028;-59
2021/11/02 20:55:55;;;;;;;30.35;20.42;;;;;;;;;;4888127;29;20041;-57
2021/11/02 20:58:25;;;;;;;31.45;19.92;;;;;;;;;;4887490;29;20163;-60
2021/11/02 21:00:51;;;;;;;28.88;19.38;;;;;;;;;;4895412;29;20032;-62
2021/11/02 21:03:17;;;;;;;29.33;19.20;;;;;;;;;;4897923;29;20040;-58
2021/11/02 21:05:44;;;;;;;30.25;18.80;;;;;;;;;;4898180;29;20033;-59
2021/11/02 21:08:11;;;;;;;29.30;19.52;;;;;;;;;;4898456;29;20035;-58
2021/11/02 21:10:39;;;;;;;28.02;18.27;;;;;;;;;;4904282;29;20040;-64
2021/11/02 21:13:07;;;;;;;29.85;18.77;;;;;;;;;;4912049;29;20463;-60
2021/11/02 21:15:34;;;;;;;27.08;18.15;;;;;;;;;;4898660;29;20449;-60
2021/11/02 21:18:03;;;;;;;26.58;18.25;;;;;;;;;;4897383;29;20096;-59
2021/11/02 21:20:29;;;;;;;28.90;18.65;;;;;;;;;;4897803;29;20028;-60
2021/11/02 21:22:55;;;;;;;26.48;18.13;;;;;;;;;;4898114;29;20064;-64
2021/11/02 21:25:22;;;;;;;28.38;19.23;;;;;;;;;;4898301;29;20020;-65
2021/11/02 21:27:49;;;;;;;30.25;20.10;;;;;;;;;;4898136;29;20025;-66
2021/11/02 21:30:16;;;;;;;34.58;21.25;;;;;;;;;;4891850;29;20036;-62
2021/11/02 21:32:44;;;;;;;32.53;21.27;;;;;;;;;;4887039;29;20125;-59
2021/11/02 21:35:11;;;;;;;27.80;19.40;;;;;;;;;;4884839;29;20085;-62
2021/11/02 21:37:37;;;;;;;28.58;19.23;;;;;;;;;;4869741;29;20024;-63
2021/11/02 21:40:03;;;;;;;27.90;17.98;;;;;;;;;;4891727;29;20033;-61
2021/11/02 21:42:29;;;;;;;26.30;17.00;;;;;;;;;;4897635;29;20051;-60
2021/11/02 21:44:57;;;;;;;23.35;15.68;;;;;;;;;;4897889;29;20405;-63
2021/11/02 21:47:29;;;;;;;24.67;15.18;;;;;;;;;;4897626;29;20036;-59
2021/11/02 21:50:09;;;;;;;21.25;14.88;;;;;;;;;;4886504;29;20025;-64
2021/11/02 21:52:35;;;;;;;23.20;14.73;;;;;;;;;;4866175;29;20453;-63
2021/11/02 21:55:06;;;;;;;21.50;14.00;;;;;;;;;;4892787;29;20039;-65
2021/11/02 21:57:39;;;;;;;23.77;14.02;;;;;;;;;;4897719;29;20025;-66
2021/11/02 22:00:06;;;;;;;23.98;14.65;;;;;;;;;;4897292;29;20016;-60
2021/11/02 22:02:34;;;;;;;24.88;14.55;;;;;;;;;;4896965;29;20084;-65
2021/11/02 22:05:00;;;;;;;22.63;14.63;;;;;;;;;;4897340;29;20079;-63
2021/11/02 22:07:26;;;;;;;21.45;15.25;;;;;;;;;;4897477;29;20041;-65
2021/11/02 22:09:52;;;;;;;22.33;14.98;;;;;;;;;;4884478;29;20049;-64
2021/11/02 22:12:19;;;;;;;24.23;14.85;;;;;;;;;;4878470;29;20504;-60
2021/11/02 22:14:45;;;;;;;24.15;15.63;;;;;;;;;;4878087;29;20044;-66
2021/11/02 22:17:12;;;;;;;21.88;15.48;;;;;;;;;;4878432;29;20029;-63
2021/11/02 22:19:38;;;;;;;27.90;16.02;;;;;;;;;;4872247;29;20390;-65
2021/11/02 22:22:05;;;;;;;23.25;15.38;;;;;;;;;;4864200;29;20052;-64
2021/11/02 22:24:32;;;;;;;23.20;15.60;;;;;;;;;;4855724;29;20048;-65
2021/11/02 22:26:58;;;;;;;25.33;15.77;;;;;;;;;;4878330;29;20054;-63
2021/11/02 22:29:27;;;;;;;25.98;15.70;;;;;;;;;;4878079;29;20033;-65
2021/11/02 22:31:53;;;;;;;23.75;15.75;;;;;;;;;;4878185;29;20036;-65
2021/11/02 22:34:20;;;;;;;24.67;15.77;;;;;;;;;;4878523;29;20037;-66
2021/11/02 22:36:47;;;;;;;21.58;15.18;;;;;;;;;;4861190;29;20085;-58
2021/11/02 22:39:13;;;;;;;22.55;15.20;;;;;;;;;;4877977;29;20040;-66
2021/11/02 22:41:39;;;;;;;23.13;15.52;;;;;;;;;;4878209;29;20029;-62
2021/11/02 22:44:06;;;;;;;23.75;15.15;;;;;;;;;;4878139;29;20040;-60
2021/11/02 22:46:32;;;;;;;21.75;15.40;;;;;;;;;;4878306;29;20037;-67
2021/11/02 22:48:58;;;;;;;23.55;15.85;;;;;;;;;;4878133;29;20063;-65
2021/11/02 22:51:25;;;;;;;24.08;15.45;;;;;;;;;;4878064;29;20916;-66
2021/11/02 22:53:51;;;;;;;24.38;16.13;;;;;;;;;;4878111;29;20498;-66
2021/11/02 22:56:18;;;;;;;21.35;15.05;;;;;;;;;;4878200;29;20057;-66